KIPT/IPT METAR and TAF weather

Enter ICAO airport designator
Station Type Date Time Source
KIPT METAR 2022/05/24 11:54 UTC NOAA

KIPT 241154Z 00000KT 10SM OVC060 14/07 A3025 RMK AO2 SLP243 T01390072 10150 20106 51013


Station Type Date Time Source
KIPT Decoded METAR 2022/05/24 11:54 UTC NOAA

WILLIAMSPORT-LYCOMING COUNTY, PA, United States (KIPT) 41-15N 076-55W 164M
May 24, 2022 - 07:54 AM EDT / 2022.05.24 1154 UTC
Wind: Calm:0
Visibility: 10 mile(s):0
Sky conditions: overcast
Temperature: 57.0 F (13.9 C)
Dew Point: 45.0 F (7.2 C)
Relative Humidity: 63%
Pressure (altimeter): 30.25 in. Hg (1024 hPa)
Pressure tendency: 0.04 inches (1.3 hPa) higher than three hours ago
ob: KIPT 241154Z 00000KT 10SM OVC060 14/07 A3025 RMK AO2 SLP243 T01390072 10150 20106 51013
cycle: 12

Station Type Date Time Source
KIPT TAF 2022/05/24 12:22 UTC NOAA

TAF KIPT 241120Z 2412/2512 VRB03KT P6SM OVC100
FM241300 12004KT P6SM OVC035
FM242100 15006KT P6SM OVC050

Example: see airport list